sensor_id;sensor_type;location;lat;lon;timestamp;pressure;altitude;pressure_sealevel;temperature;humidity
29909;BME280;36247;51.952;6.146;2023-04-15T00:00:45;100759.97;;;7.25;100.00
29909;BME280;36247;51.952;6.146;2023-04-15T00:03:11;100755.34;;;7.16;100.00
29909;BME280;36247;51.952;6.146;2023-04-15T00:08:36;100751.91;;;7.19;100.00
29909;BME280;36247;51.952;6.146;2023-04-15T00:11:10;100758.78;;;7.12;100.00
29909;BME280;36247;51.952;6.146;2023-04-15T00:13:38;100755.28;;;7.15;100.00
29909;BME280;36247;51.952;6.146;2023-04-15T00:16:05;100763.84;;;7.06;100.00
29909;BME280;36247;51.952;6.146;2023-04-15T00:18:39;100755.97;;;7.07;100.00
29909;BME280;36247;51.952;6.146;2023-04-15T00:21:06;100758.34;;;6.97;100.00
29909;BME280;36247;51.952;6.146;2023-04-15T00:23:32;100749.03;;;7.10;100.00
29909;BME280;36247;51.952;6.146;2023-04-15T00:26:01;100761.56;;;7.18;100.00
29909;BME280;36247;51.952;6.146;2023-04-15T00:28:35;100758.84;;;7.15;100.00
29909;BME280;36247;51.952;6.146;2023-04-15T00:31:05;100766.66;;;7.12;100.00
29909;BME280;36247;51.952;6.146;2023-04-15T00:33:31;100765.97;;;7.19;100.00
29909;BME280;36247;51.952;6.146;2023-04-15T00:36:02;100766.16;;;7.26;100.00
29909;BME280;36247;51.952;6.146;2023-04-15T00:38:28;100756.97;;;7.11;100.00
29909;BME280;36247;51.952;6.146;2023-04-15T00:40:58;100761.72;;;7.24;100.00
29909;BME280;36247;51.952;6.146;2023-04-15T00:43:24;100766.97;;;7.24;100.00
29909;BME280;36247;51.952;6.146;2023-04-15T00:45:52;100762.97;;;7.05;100.00
29909;BME280;36247;51.952;6.146;2023-04-15T00:48:19;100767.44;;;7.08;100.00
29909;BME280;36247;51.952;6.146;2023-04-15T00:50:49;100763.97;;;7.09;100.00
29909;BME280;36247;51.952;6.146;2023-04-15T00:53:18;100765.44;;;6.99;100.00
29909;BME280;36247;51.952;6.146;2023-04-15T00:55:47;100765.47;;;7.01;100.00
29909;BME280;36247;51.952;6.146;2023-04-15T00:58:17;100762.09;;;7.05;100.00
29909;BME280;36247;51.952;6.146;2023-04-15T01:00:46;100761.75;;;6.93;100.00
29909;BME280;36247;51.952;6.146;2023-04-15T01:03:16;100771.34;;;6.91;100.00
29909;BME280;36247;51.952;6.146;2023-04-15T01:05:46;100771.16;;;6.84;100.00
29909;BME280;36247;51.952;6.146;2023-04-15T01:08:14;100775.53;;;6.82;100.00
29909;BME280;36247;51.952;6.146;2023-04-15T01:10:41;100771.13;;;6.83;100.00
29909;BME280;36247;51.952;6.146;2023-04-15T01:13:12;100768.25;;;6.74;100.00
29909;BME280;36247;51.952;6.146;2023-04-15T01:15:45;100766.59;;;6.77;100.00
29909;BME280;36247;51.952;6.146;2023-04-15T01:18:36;100765.81;;;6.81;100.00
29909;BME280;36247;51.952;6.146;2023-04-15T01:23:50;100780.28;;;6.65;100.00
29909;BME280;36247;51.952;6.146;2023-04-15T01:26:22;100775.97;;;6.67;100.00
29909;BME280;36247;51.952;6.146;2023-04-15T01:28:54;100772.56;;;6.71;100.00
29909;BME280;36247;51.952;6.146;2023-04-15T01:31:20;100773.81;;;6.84;100.00
29909;BME280;36247;51.952;6.146;2023-04-15T01:33:48;100778.16;;;6.82;100.00
29909;BME280;36247;51.952;6.146;2023-04-15T01:36:15;100765.78;;;6.80;100.00
29909;BME280;36247;51.952;6.146;2023-04-15T01:38:45;100769.22;;;6.77;100.00
29909;BME280;36247;51.952;6.146;2023-04-15T01:41:26;100771.13;;;6.83;100.00
29909;BME280;36247;51.952;6.146;2023-04-15T01:43:58;100771.81;;;6.76;100.00
29909;BME280;36247;51.952;6.146;2023-04-15T01:46:26;100770.78;;;6.70;100.00
29909;BME280;36247;51.952;6.146;2023-04-15T01:48:52;100768.41;;;6.80;100.00
29909;BME280;36247;51.952;6.146;2023-04-15T01:51:19;100770.28;;;6.84;100.00
29909;BME280;36247;51.952;6.146;2023-04-15T01:53:48;100769.97;;;6.73;100.00
29909;BME280;36247;51.952;6.146;2023-04-15T01:56:16;100768.25;;;6.74;100.00
29909;BME280;36247;51.952;6.146;2023-04-15T01:58:43;100774.47;;;6.77;100.00
29909;BME280;36247;51.952;6.146;2023-04-15T02:01:19;100776.59;;;6.59;100.00
29909;BME280;36247;51.952;6.146;2023-04-15T02:03:46;100783.09;;;6.41;100.00
29909;BME280;36247;51.952;6.146;2023-04-15T02:06:17;100783.97;;;6.42;100.00
29909;BME280;36247;51.952;6.146;2023-04-15T02:08:44;100778.41;;;6.31;100.00
29909;BME280;36247;51.952;6.146;2023-04-15T02:11:12;100783.59;;;6.58;100.00
29909;BME280;36247;51.952;6.146;2023-04-15T02:13:39;100788.53;;;6.47;100.00
29909;BME280;36247;51.952;6.146;2023-04-15T02:16:19;100788.22;;;6.37;100.00
29909;BME280;36247;51.952;6.146;2023-04-15T02:18:46;100793.81;;;6.18;100.00
29909;BME280;36247;51.952;6.146;2023-04-15T02:21:13;100795.41;;;6.13;100.00
29909;BME280;36247;51.952;6.146;2023-04-15T02:23:42;100803.53;;;5.94;100.00
29909;BME280;36247;51.952;6.146;2023-04-15T02:26:18;100803.19;;;5.83;100.00
29909;BME280;36247;51.952;6.146;2023-04-15T02:28:46;100801.97;;;5.99;100.00
29909;BME280;36247;51.952;6.146;2023-04-15T02:31:26;100807.66;;;6.13;100.00
29909;BME280;36247;51.952;6.146;2023-04-15T02:33:56;100802.22;;;6.07;100.00
29909;BME280;36247;51.952;6.146;2023-04-15T02:36:23;100812.19;;;6.17;100.00
29909;BME280;36247;51.952;6.146;2023-04-15T02:38:52;100806.59;;;6.06;100.00
29909;BME280;36247;51.952;6.146;2023-04-15T02:41:19;100814.09;;;5.95;100.00
29909;BME280;36247;51.952;6.146;2023-04-15T02:43:47;100810.25;;;5.84;100.00
29909;BME280;36247;51.952;6.146;2023-04-15T02:46:21;100813.34;;;5.98;100.00
29909;BME280;36247;51.952;6.146;2023-04-15T02:48:49;100814.22;;;5.98;100.00
29909;BME280;36247;51.952;6.146;2023-04-15T02:51:17;100810.63;;;5.96;100.00
29909;BME280;36247;51.952;6.146;2023-04-15T02:53:48;100818.41;;;5.93;100.00
29909;BME280;36247;51.952;6.146;2023-04-15T02:56:18;100817.22;;;5.83;100.00
29909;BME280;36247;51.952;6.146;2023-04-15T02:58:45;100821.34;;;5.75;100.00
29909;BME280;36247;51.952;6.146;2023-04-15T03:01:11;100829.81;;;5.67;100.00
29909;BME280;36247;51.952;6.146;2023-04-15T03:03:41;100823.56;;;5.63;100.00
29909;BME280;36247;51.952;6.146;2023-04-15T03:06:11;100828.34;;;5.49;100.00
29909;BME280;36247;51.952;6.146;2023-04-15T03:08:42;100821.03;;;5.40;100.00
29909;BME280;36247;51.952;6.146;2023-04-15T03:11:13;100818.91;;;5.28;100.00
29909;BME280;36247;51.952;6.146;2023-04-15T03:13:41;100823.53;;;5.37;100.00
29909;BME280;36247;51.952;6.146;2023-04-15T03:16:23;100826.47;;;5.21;100.00
29909;BME280;36247;51.952;6.146;2023-04-15T03:18:53;100836.41;;;5.29;100.00
29909;BME280;36247;51.952;6.146;2023-04-15T03:21:22;100828.84;;;5.39;100.00
29909;BME280;36247;51.952;6.146;2023-04-15T03:23:49;100838.13;;;5.27;100.00
29909;BME280;36247;51.952;6.146;2023-04-15T03:26:31;100836.41;;;5.55;100.00
29909;BME280;36247;51.952;6.146;2023-04-15T03:29:10;100837.97;;;5.48;100.00
29909;BME280;36247;51.952;6.146;2023-04-15T03:31:42;100847.03;;;5.33;100.00
29909;BME280;36247;51.952;6.146;2023-04-15T03:34:10;100844.41;;;5.33;100.00
29909;BME280;36247;51.952;6.146;2023-04-15T03:36:39;100840.78;;;5.29;100.00
29909;BME280;36247;51.952;6.146;2023-04-15T03:39:11;100847.84;;;5.30;100.00
29909;BME280;36247;51.952;6.146;2023-04-15T03:44:53;100852.19;;;5.05;100.00
29909;BME280;36247;51.952;6.146;2023-04-15T03:47:24;100860.63;;;5.21;100.00
29909;BME280;36247;51.952;6.146;2023-04-15T03:49:51;100859.56;;;5.16;100.00
29909;BME280;36247;51.952;6.146;2023-04-15T03:52:34;100859.91;;;5.25;100.00
29909;BME280;36247;51.952;6.146;2023-04-15T03:55:02;100860.84;;;5.03;100.00
29909;BME280;36247;51.952;6.146;2023-04-15T03:57:48;100864.50;;;5.30;100.00
29909;BME280;36247;51.952;6.146;2023-04-15T04:03:12;100871.69;;;4.88;100.00
29909;BME280;36247;51.952;6.146;2023-04-15T04:06:44;100866.53;;;4.91;100.00
29909;BME280;36247;51.952;6.146;2023-04-15T04:09:24;100864.78;;;4.90;100.00
29909;BME280;36247;51.952;6.146;2023-04-15T04:11:51;100873.47;;;4.89;100.00
29909;BME280;36247;51.952;6.146;2023-04-15T04:14:18;100879.22;;;4.79;100.00
29909;BME280;36247;51.952;6.146;2023-04-15T04:16:44;100884.19;;;4.71;100.00
29909;BME280;36247;51.952;6.146;2023-04-15T04:19:12;100880.66;;;4.70;100.00
29909;BME280;36247;51.952;6.146;2023-04-15T04:21:52;100876.94;;;4.88;100.00
29909;BME280;36247;51.952;6.146;2023-04-15T04:24:36;100890.66;;;4.81;100.00
29909;BME280;36247;51.952;6.146;2023-04-15T04:27:10;100890.19;;;4.68;100.00
29909;BME280;36247;51.952;6.146;2023-04-15T04:29:39;100891.34;;;4.75;100.00
29909;BME280;36247;51.952;6.146;2023-04-15T04:32:06;100896.03;;;4.61;100.00
29909;BME280;36247;51.952;6.146;2023-04-15T04:34:45;100903.25;;;4.67;100.00
29909;BME280;36247;51.952;6.146;2023-04-15T04:37:14;100901.56;;;4.67;100.00
29909;BME280;36247;51.952;6.146;2023-04-15T04:39:42;100910.31;;;4.68;100.00
29909;BME280;36247;51.952;6.146;2023-04-15T04:42:11;100905.34;;;4.75;100.00
29909;BME280;36247;51.952;6.146;2023-04-15T04:44:56;100916.06;;;4.82;100.00
29909;BME280;36247;51.952;6.146;2023-04-15T04:47:23;100916.84;;;4.79;100.00
29909;BME280;36247;51.952;6.146;2023-04-15T04:50:06;100920.91;;;4.71;100.00
29909;BME280;36247;51.952;6.146;2023-04-15T04:52:38;100922.78;;;4.73;100.00
29909;BME280;36247;51.952;6.146;2023-04-15T04:55:20;100923.53;;;4.71;100.00
29909;BME280;36247;51.952;6.146;2023-04-15T04:57:55;100929.03;;;4.77;100.00
29909;BME280;36247;51.952;6.146;2023-04-15T05:00:29;100933.75;;;4.86;100.00
29909;BME280;36247;51.952;6.146;2023-04-15T05:02:55;100930.34;;;4.88;100.00
29909;BME280;36247;51.952;6.146;2023-04-15T05:05:21;100933.84;;;4.89;100.00
29909;BME280;36247;51.952;6.146;2023-04-15T05:07:51;100934.41;;;4.80;100.00
29909;BME280;36247;51.952;6.146;2023-04-15T05:10:18;100939.81;;;4.85;100.00
29909;BME280;36247;51.952;6.146;2023-04-15T05:12:46;100941.56;;;4.84;100.00
29909;BME280;36247;51.952;6.146;2023-04-15T05:15:14;100935.66;;;4.90;100.00
29909;BME280;36247;51.952;6.146;2023-04-15T05:17:40;100939.22;;;4.92;100.00
29909;BME280;36247;51.952;6.146;2023-04-15T05:20:08;100955.25;;;5.00;100.00
29909;BME280;36247;51.952;6.146;2023-04-15T05:22:34;100955.94;;;5.17;100.00
29909;BME280;36247;51.952;6.146;2023-04-15T05:25:01;100949.94;;;5.21;100.00
29909;BME280;36247;51.952;6.146;2023-04-15T05:27:27;100958.44;;;5.14;100.00
29909;BME280;36247;51.952;6.146;2023-04-15T05:29:53;100962.06;;;5.17;100.00
29909;BME280;36247;51.952;6.146;2023-04-15T05:32:29;100962.13;;;5.19;100.00
29909;BME280;36247;51.952;6.146;2023-04-15T05:35:06;100957.47;;;5.36;100.00
29909;BME280;36247;51.952;6.146;2023-04-15T05:37:35;100955.16;;;5.43;100.00
29909;BME280;36247;51.952;6.146;2023-04-15T05:40:01;100967.47;;;5.70;100.00
29909;BME280;36247;51.952;6.146;2023-04-15T05:42:29;100972.56;;;5.90;100.00
29909;BME280;36247;51.952;6.146;2023-04-15T05:45:00;100968.91;;;6.10;100.00
29909;BME280;36247;51.952;6.146;2023-04-15T05:47:36;100970.81;;;6.14;100.00
29909;BME280;36247;51.952;6.146;2023-04-15T05:50:08;100974.66;;;6.24;100.00
29909;BME280;36247;51.952;6.146;2023-04-15T05:52:35;100976.84;;;6.38;100.00
29909;BME280;36247;51.952;6.146;2023-04-15T05:55:02;100984.31;;;6.51;100.00
29909;BME280;36247;51.952;6.146;2023-04-15T05:57:34;100993.13;;;6.53;100.00
29909;BME280;36247;51.952;6.146;2023-04-15T06:00:05;100995.09;;;6.59;100.00
29909;BME280;36247;51.952;6.146;2023-04-15T06:02:40;101008.09;;;6.54;100.00
29909;BME280;36247;51.952;6.146;2023-04-15T06:05:11;101014.53;;;6.64;100.00
29909;BME280;36247;51.952;6.146;2023-04-15T06:07:38;101018.09;;;6.64;100.00
29909;BME280;36247;51.952;6.146;2023-04-15T06:10:05;101015.75;;;6.74;100.00
29909;BME280;36247;51.952;6.146;2023-04-15T06:12:32;101014.00;;;6.74;100.00
29909;BME280;36247;51.952;6.146;2023-04-15T06:14:58;101023.09;;;6.84;100.00
29909;BME280;36247;51.952;6.146;2023-04-15T06:17:24;101027.41;;;6.82;100.00
29909;BME280;36247;51.952;6.146;2023-04-15T06:19:54;101022.28;;;6.86;100.00
29909;BME280;36247;51.952;6.146;2023-04-15T06:22:21;101040.41;;;6.77;100.00
29909;BME280;36247;51.952;6.146;2023-04-15T06:24:48;101039.81;;;6.86;100.00
29909;BME280;36247;51.952;6.146;2023-04-15T06:27:15;101042.38;;;6.83;100.00
29909;BME280;36247;51.952;6.146;2023-04-15T06:29:41;101046.25;;;6.94;100.00
29909;BME280;36247;51.952;6.146;2023-04-15T06:32:09;101052.63;;;7.02;100.00
29909;BME280;36247;51.952;6.146;2023-04-15T06:34:40;101044.97;;;7.10;100.00
29909;BME280;36247;51.952;6.146;2023-04-15T06:37:09;101052.84;;;7.09;100.00
29909;BME280;36247;51.952;6.146;2023-04-15T06:39:41;101050.28;;;7.12;100.00
29909;BME280;36247;51.952;6.146;2023-04-15T06:42:10;101064.34;;;7.11;100.00
29909;BME280;36247;51.952;6.146;2023-04-15T06:44:44;101065.44;;;7.19;100.00
29909;BME280;36247;51.952;6.146;2023-04-15T06:47:14;101071.69;;;7.22;100.00
29909;BME280;36247;51.952;6.146;2023-04-15T06:49:49;101070.81;;;7.22;100.00
29909;BME280;36247;51.952;6.146;2023-04-15T06:52:19;101074.47;;;7.26;100.00
29909;BME280;36247;51.952;6.146;2023-04-15T06:54:46;101078.91;;;7.28;100.00
29909;BME280;36247;51.952;6.146;2023-04-15T06:57:26;101074.88;;;7.39;100.00
29909;BME280;36247;51.952;6.146;2023-04-15T07:00:10;101075.38;;;7.56;100.00
29909;BME280;36247;51.952;6.146;2023-04-15T07:02:37;101081.88;;;7.68;100.00
29909;BME280;36247;51.952;6.146;2023-04-15T07:05:18;101072.50;;;7.79;100.00
29909;BME280;36247;51.952;6.146;2023-04-15T07:07:48;101079.75;;;7.86;100.00
29909;BME280;36247;51.952;6.146;2023-04-15T07:10:17;101086.31;;;8.01;100.00
29909;BME280;36247;51.952;6.146;2023-04-15T07:12:48;101086.03;;;8.22;100.00
29909;BME280;36247;51.952;6.146;2023-04-15T07:15:17;101088.78;;;8.26;100.00
29909;BME280;36247;51.952;6.146;2023-04-15T07:17:43;101092.81;;;8.44;100.00
29909;BME280;36247;51.952;6.146;2023-04-15T07:20:10;101103.81;;;8.61;100.00
29909;BME280;36247;51.952;6.146;2023-04-15T07:22:41;101103.28;;;8.74;100.00
29909;BME280;36247;51.952;6.146;2023-04-15T07:25:12;101102.09;;;8.61;100.00
29909;BME280;36247;51.952;6.146;2023-04-15T07:27:38;101098.00;;;8.74;100.00
29909;BME280;36247;51.952;6.146;2023-04-15T07:30:05;101104.81;;;9.01;100.00
29909;BME280;36247;51.952;6.146;2023-04-15T07:32:32;101094.44;;;9.09;100.00
29909;BME280;36247;51.952;6.146;2023-04-15T07:34:59;101097.28;;;9.18;100.00
29909;BME280;36247;51.952;6.146;2023-04-15T07:37:33;101105.47;;;9.27;100.00
29909;BME280;36247;51.952;6.146;2023-04-15T07:40:06;101105.66;;;9.37;100.00
29909;BME280;36247;51.952;6.146;2023-04-15T07:42:38;101105.31;;;9.21;100.00
29909;BME280;36247;51.952;6.146;2023-04-15T07:45:10;101109.28;;;9.42;100.00
29909;BME280;36247;51.952;6.146;2023-04-15T07:47:41;101114.38;;;9.70;100.00
29909;BME280;36247;51.952;6.146;2023-04-15T07:50:13;101117.44;;;9.49;100.00
29909;BME280;36247;51.952;6.146;2023-04-15T07:52:39;101121.91;;;9.53;100.00
29909;BME280;36247;51.952;6.146;2023-04-15T07:55:08;101118.06;;;9.79;100.00
29909;BME280;36247;51.952;6.146;2023-04-15T07:57:45;101117.88;;;9.71;100.00
29909;BME280;36247;51.952;6.146;2023-04-15T08:00:13;101123.22;;;9.73;100.00
29909;BME280;36247;51.952;6.146;2023-04-15T08:02:44;101137.88;;;9.58;100.00
29909;BME280;36247;51.952;6.146;2023-04-15T08:05:17;101126.75;;;9.73;100.00
29909;BME280;36247;51.952;6.146;2023-04-15T08:07:46;101133.56;;;9.62;100.00
29909;BME280;36247;51.952;6.146;2023-04-15T08:10:17;101137.06;;;9.61;100.00
29909;BME280;36247;51.952;6.146;2023-04-15T08:12:43;101144.41;;;9.74;100.00
29909;BME280;36247;51.952;6.146;2023-04-15T08:15:19;101131.09;;;9.69;100.00
29909;BME280;36247;51.952;6.146;2023-04-15T08:17:48;101144.72;;;9.88;100.00
29909;BME280;36247;51.952;6.146;2023-04-15T08:20:14;101146.56;;;9.92;100.00
29909;BME280;36247;51.952;6.146;2023-04-15T08:22:40;101142.97;;;10.33;100.00
29909;BME280;36247;51.952;6.146;2023-04-15T08:25:09;101142.81;;;10.25;100.00
29909;BME280;36247;51.952;6.146;2023-04-15T08:27:37;101147.69;;;10.46;100.00
29909;BME280;36247;51.952;6.146;2023-04-15T08:30:09;101143.84;;;10.30;100.00
29909;BME280;36247;51.952;6.146;2023-04-15T08:32:36;101141.31;;;10.35;100.00
29909;BME280;36247;51.952;6.146;2023-04-15T08:35:02;101145.88;;;10.42;100.00
29909;BME280;36247;51.952;6.146;2023-04-15T08:37:28;101145.31;;;10.60;100.00
29909;BME280;36247;51.952;6.146;2023-04-15T08:39:56;101142.66;;;10.60;100.00
29909;BME280;36247;51.952;6.146;2023-04-15T08:42:30;101143.72;;;10.70;100.00
29909;BME280;36247;51.952;6.146;2023-04-15T08:44:59;101145.00;;;10.93;100.00
29909;BME280;36247;51.952;6.146;2023-04-15T08:47:29;101158.38;;;11.00;100.00
29909;BME280;36247;51.952;6.146;2023-04-15T08:49:57;101160.38;;;11.13;100.00
29909;BME280;36247;51.952;6.146;2023-04-15T08:52:26;101164.56;;;11.57;100.00
29909;BME280;36247;51.952;6.146;2023-04-15T08:54:56;101151.38;;;11.60;100.00
29909;BME280;36247;51.952;6.146;2023-04-15T08:57:27;101154.41;;;11.88;100.00
29909;BME280;36247;51.952;6.146;2023-04-15T08:59:56;101163.75;;;12.24;100.00
29909;BME280;36247;51.952;6.146;2023-04-15T09:02:23;101173.53;;;12.26;100.00
29909;BME280;36247;51.952;6.146;2023-04-15T09:04:58;101167.88;;;12.02;100.00
29909;BME280;36247;51.952;6.146;2023-04-15T09:07:28;101175.41;;;12.33;100.00
29909;BME280;36247;51.952;6.146;2023-04-15T09:09:54;101170.94;;;12.32;100.00
29909;BME280;36247;51.952;6.146;2023-04-15T09:12:20;101175.88;;;12.03;100.00
29909;BME280;36247;51.952;6.146;2023-04-15T09:14:47;101182.19;;;12.10;100.00
29909;BME280;36247;51.952;6.146;2023-04-15T09:17:19;101186.69;;;12.17;100.00
29909;BME280;36247;51.952;6.146;2023-04-15T09:19:47;101189.97;;;11.96;100.00
29909;BME280;36247;51.952;6.146;2023-04-15T09:22:14;101191.28;;;12.30;100.00
29909;BME280;36247;51.952;6.146;2023-04-15T09:24:39;101195.09;;;12.51;100.00
29909;BME280;36247;51.952;6.146;2023-04-15T09:27:08;101193.53;;;12.73;100.00
29909;BME280;36247;51.952;6.146;2023-04-15T09:29:35;101190.97;;;12.81;100.00
29909;BME280;36247;51.952;6.146;2023-04-15T09:32:12;101193.09;;;13.17;100.00
29909;BME280;36247;51.952;6.146;2023-04-15T09:34:39;101198.84;;;12.72;100.00
29909;BME280;36247;51.952;6.146;2023-04-15T09:37:06;101205.25;;;12.91;100.00
29909;BME280;36247;51.952;6.146;2023-04-15T09:39:49;101205.13;;;13.77;100.00
29909;BME280;36247;51.952;6.146;2023-04-15T09:42:20;101200.97;;;14.36;100.00
29909;BME280;36247;51.952;6.146;2023-04-15T09:44:49;101205.66;;;15.09;100.00
29909;BME280;36247;51.952;6.146;2023-04-15T09:47:30;101208.03;;;14.20;100.00
29909;BME280;36247;51.952;6.146;2023-04-15T09:50:00;101211.63;;;14.40;100.00
29909;BME280;36247;51.952;6.146;2023-04-15T09:52:29;101208.28;;;14.95;100.00
29909;BME280;36247;51.952;6.146;2023-04-15T09:55:00;101218.94;;;14.83;100.00
29909;BME280;36247;51.952;6.146;2023-04-15T09:57:36;101220.47;;;14.25;100.00
29909;BME280;36247;51.952;6.146;2023-04-15T10:00:04;101222.72;;;13.57;100.00
29909;BME280;36247;51.952;6.146;2023-04-15T10:02:40;101231.03;;;12.99;100.00
29909;BME280;36247;51.952;6.146;2023-04-15T10:05:13;101237.91;;;12.77;100.00
29909;BME280;36247;51.952;6.146;2023-04-15T10:07:44;101225.75;;;13.02;100.00
29909;BME280;36247;51.952;6.146;2023-04-15T10:10:12;101230.19;;;13.02;100.00
29909;BME280;36247;51.952;6.146;2023-04-15T10:12:44;101228.66;;;13.27;100.00
29909;BME280;36247;51.952;6.146;2023-04-15T10:15:14;101229.56;;;13.31;100.00
29909;BME280;36247;51.952;6.146;2023-04-15T10:17:50;101225.28;;;13.44;100.00
29909;BME280;36247;51.952;6.146;2023-04-15T10:20:19;101228.72;;;13.33;100.00
29909;BME280;36247;51.952;6.146;2023-04-15T10:22:47;101222.97;;;13.93;100.00
29909;BME280;36247;51.952;6.146;2023-04-15T10:25:15;101224.81;;;14.05;100.00
29909;BME280;36247;51.952;6.146;2023-04-15T10:27:43;101221.25;;;14.06;100.00
29909;BME280;36247;51.952;6.146;2023-04-15T10:30:10;101228.38;;;14.08;100.00
29909;BME280;36247;51.952;6.146;2023-04-15T10:32:38;101240.47;;;13.57;100.00
29909;BME280;36247;51.952;6.146;2023-04-15T10:35:05;101245.28;;;13.08;100.00
29909;BME280;36247;51.952;6.146;2023-04-15T10:37:36;101253.16;;;12.95;100.00
29909;BME280;36247;51.952;6.146;2023-04-15T10:42:57;101252.31;;;12.98;100.00
29909;BME280;36247;51.952;6.146;2023-04-15T10:45:30;101249.38;;;12.73;100.00
29909;BME280;36247;51.952;6.146;2023-04-15T10:48:03;101259.53;;;13.10;100.00
29909;BME280;36247;51.952;6.146;2023-04-15T10:50:36;101262.19;;;13.11;100.00
29909;BME280;36247;51.952;6.146;2023-04-15T10:53:05;101254.47;;;13.34;100.00
29909;BME280;36247;51.952;6.146;2023-04-15T10:55:36;101253.38;;;14.29;100.00
29909;BME280;36247;51.952;6.146;2023-04-15T10:58:05;101255.88;;;14.06;100.00
29909;BME280;36247;51.952;6.146;2023-04-15T11:00:32;101265.94;;;13.32;100.00
29909;BME280;36247;51.952;6.146;2023-04-15T11:03:07;101254.78;;;13.74;100.00
29909;BME280;36247;51.952;6.146;2023-04-15T11:05:52;101255.81;;;13.95;100.00
29909;BME280;36247;51.952;6.146;2023-04-15T11:08:19;101266.19;;;13.58;100.00
29909;BME280;36247;51.952;6.146;2023-04-15T11:13:19;101252.38;;;14.13;100.00
29909;BME280;36247;51.952;6.146;2023-04-15T11:15:55;101263.25;;;14.59;100.00
29909;BME280;36247;51.952;6.146;2023-04-15T11:18:25;101259.81;;;14.76;100.00
29909;BME280;36247;51.952;6.146;2023-04-15T11:20:58;101272.03;;;14.31;100.00
29909;BME280;36247;51.952;6.146;2023-04-15T11:26:03;101266.09;;;14.98;100.00
29909;BME280;36247;51.952;6.146;2023-04-15T11:28:35;101268.72;;;14.81;100.00
29909;BME280;36247;51.952;6.146;2023-04-15T11:31:18;101272.28;;;14.92;100.00
29909;BME280;36247;51.952;6.146;2023-04-15T11:36:27;101273.22;;;15.05;100.00
29909;BME280;36247;51.952;6.146;2023-04-15T11:38:53;101268.78;;;15.06;100.00
29909;BME280;36247;51.952;6.146;2023-04-15T11:41:20;101267.81;;;14.80;100.00
29909;BME280;36247;51.952;6.146;2023-04-15T11:43:51;101281.25;;;15.21;100.00
29909;BME280;36247;51.952;6.146;2023-04-15T11:46:17;101282.78;;;14.52;100.00
29909;BME280;36247;51.952;6.146;2023-04-15T11:48:45;101291.41;;;14.02;100.00
29909;BME280;36247;51.952;6.146;2023-04-15T11:51:12;101293.00;;;13.78;100.00
29909;BME280;36247;51.952;6.146;2023-04-15T11:53:47;101294.78;;;13.81;100.00
29909;BME280;36247;51.952;6.146;2023-04-15T11:56:23;101289.94;;;14.59;100.00
29909;BME280;36247;51.952;6.146;2023-04-15T11:58:58;101291.94;;;15.33;100.00
29909;BME280;36247;51.952;6.146;2023-04-15T12:01:37;101296.84;;;14.19;100.00
29909;BME280;36247;51.952;6.146;2023-04-15T12:04:18;101291.31;;;13.92;100.00
29909;BME280;36247;51.952;6.146;2023-04-15T12:06:47;101306.19;;;13.64;100.00
29909;BME280;36247;51.952;6.146;2023-04-15T12:09:15;101308.16;;;13.87;100.00
29909;BME280;36247;51.952;6.146;2023-04-15T12:11:49;101307.38;;;14.00;100.00
29909;BME280;36247;51.952;6.146;2023-04-15T12:14:32;101317.22;;;14.15;100.00
29909;BME280;36247;51.952;6.146;2023-04-15T12:17:10;101324.09;;;13.84;100.00
29909;BME280;36247;51.952;6.146;2023-04-15T12:19:40;101329.47;;;13.88;100.00
29909;BME280;36247;51.952;6.146;2023-04-15T12:22:11;101323.28;;;13.92;100.00
29909;BME280;36247;51.952;6.146;2023-04-15T12:24:43;101326.25;;;14.39;100.00
29909;BME280;36247;51.952;6.146;2023-04-15T12:27:18;101338.25;;;13.75;100.00
29909;BME280;36247;51.952;6.146;2023-04-15T12:29:47;101347.00;;;13.63;100.00
29909;BME280;36247;51.952;6.146;2023-04-15T12:32:17;101340.53;;;13.36;100.00
29909;BME280;36247;51.952;6.146;2023-04-15T12:34:56;101343.44;;;13.63;100.00
29909;BME280;36247;51.952;6.146;2023-04-15T12:37:23;101334.97;;;14.11;100.00
29909;BME280;36247;51.952;6.146;2023-04-15T12:39:52;101354.69;;;13.34;100.00
29909;BME280;36247;51.952;6.146;2023-04-15T12:42:20;101354.25;;;13.80;100.00
29909;BME280;36247;51.952;6.146;2023-04-15T12:44:49;101359.63;;;13.83;100.00
29909;BME280;36247;51.952;6.146;2023-04-15T12:47:18;101355.84;;;13.61;100.00
29909;BME280;36247;51.952;6.146;2023-04-15T12:49:44;101351.75;;;14.00;100.00
29909;BME280;36247;51.952;6.146;2023-04-15T12:52:11;101351.81;;;14.09;100.00
29909;BME280;36247;51.952;6.146;2023-04-15T12:54:40;101354.59;;;14.24;100.00
29909;BME280;36247;51.952;6.146;2023-04-15T12:57:08;101359.25;;;14.59;100.00
29909;BME280;36247;51.952;6.146;2023-04-15T12:59:35;101353.84;;;14.44;100.00
29909;BME280;36247;51.952;6.146;2023-04-15T13:02:03;101360.59;;;13.96;100.00
29909;BME280;36247;51.952;6.146;2023-04-15T13:04:32;101366.28;;;14.45;100.00
29909;BME280;36247;51.952;6.146;2023-04-15T13:07:02;101353.81;;;14.36;100.00
29909;BME280;36247;51.952;6.146;2023-04-15T13:09:28;101364.34;;;14.24;100.00
29909;BME280;36247;51.952;6.146;2023-04-15T13:11:55;101366.13;;;14.20;100.00
29909;BME280;36247;51.952;6.146;2023-04-15T13:14:24;101369.59;;;14.10;100.00
29909;BME280;36247;51.952;6.146;2023-04-15T13:16:53;101380.91;;;13.81;100.00
29909;BME280;36247;51.952;6.146;2023-04-15T13:19:19;101376.47;;;13.83;100.00
29909;BME280;36247;51.952;6.146;2023-04-15T13:21:45;101384.41;;;13.75;100.00
29909;BME280;36247;51.952;6.146;2023-04-15T13:24:15;101389.06;;;14.01;100.00